createdAt,value
2023-01-25T00:01:05.068Z,100.00
2023-01-25T00:03:32.616Z,100.00
2023-01-25T00:06:04.451Z,100.00
2023-01-25T00:08:33.747Z,100.00
2023-01-25T00:11:01.403Z,100.00
2023-01-25T00:13:29.013Z,100.00
2023-01-25T00:16:04.687Z,100.00
2023-01-25T00:18:33.188Z,100.00
2023-01-25T00:21:00.797Z,100.00
2023-01-25T00:23:28.906Z,100.00
2023-01-25T00:25:59.838Z,100.00
2023-01-25T00:28:27.378Z,100.00
2023-01-25T00:31:00.131Z,100.00
2023-01-25T00:34:06.117Z,100.00
2023-01-25T00:36:40.010Z,100.00
2023-01-25T00:39:12.213Z,100.00
2023-01-25T00:41:40.508Z,100.00
2023-01-25T00:44:08.413Z,100.00
2023-01-25T00:46:36.365Z,100.00
2023-01-25T00:49:07.581Z,100.00
2023-01-25T00:51:35.141Z,100.00
2023-01-25T00:54:03.119Z,100.00
2023-01-25T00:56:31.128Z,100.00
2023-01-25T00:58:58.665Z,100.00
2023-01-25T01:01:26.446Z,100.00
2023-01-25T01:03:53.951Z,100.00
2023-01-25T01:06:23.115Z,100.00
2023-01-25T01:08:53.948Z,100.00
2023-01-25T01:11:23.111Z,100.00
2023-01-25T01:13:51.554Z,100.00
2023-01-25T01:16:19.166Z,100.00
2023-01-25T01:18:47.425Z,100.00
2023-01-25T01:21:15.137Z,100.00
2023-01-25T01:23:43.304Z,100.00
2023-01-25T01:26:19.526Z,100.00
2023-01-25T01:28:47.773Z,100.00
2023-01-25T01:31:22.264Z,100.00
2023-01-25T01:34:01.226Z,100.00
2023-01-25T01:36:30.555Z,100.00
2023-01-25T01:39:00.047Z,100.00
2023-01-25T01:41:28.765Z,100.00
2023-01-25T01:43:56.489Z,100.00
2023-01-25T01:46:26.906Z,100.00
2023-01-25T01:49:03.397Z,100.00
2023-01-25T01:52:02.109Z,100.00
2023-01-25T01:54:37.603Z,100.00
2023-01-25T01:57:14.530Z,100.00
2023-01-25T01:59:53.357Z,100.00
2023-01-25T02:02:24.969Z,100.00
2023-01-25T02:04:56.094Z,100.00
2023-01-25T02:07:34.685Z,100.00
2023-01-25T02:10:06.718Z,100.00
2023-01-25T02:12:35.787Z,100.00
2023-01-25T02:15:04.492Z,100.00
2023-01-25T02:17:35.148Z,100.00
2023-01-25T02:20:37.431Z,100.00
2023-01-25T02:23:33.614Z,100.00
2023-01-25T02:26:06.910Z,100.00
2023-01-25T02:28:41.635Z,100.00
2023-01-25T02:31:09.586Z,100.00
2023-01-25T02:33:37.427Z,100.00
2023-01-25T02:36:08.797Z,100.00
2023-01-25T02:38:40.126Z,100.00
2023-01-25T02:41:13.813Z,100.00
2023-01-25T02:43:42.368Z,100.00
2023-01-25T02:46:15.813Z,100.00
2023-01-25T02:48:45.812Z,100.00
2023-01-25T02:51:13.402Z,100.00
2023-01-25T02:53:41.825Z,100.00
2023-01-25T02:56:09.416Z,100.00
2023-01-25T02:58:37.064Z,100.00
2023-01-25T03:01:05.143Z,100.00
2023-01-25T03:03:33.262Z,100.00
2023-01-25T03:06:00.939Z,100.00
2023-01-25T03:08:28.489Z,100.00
2023-01-25T03:10:59.298Z,100.00
2023-01-25T03:13:29.485Z,100.00
2023-01-25T03:16:03.213Z,100.00
2023-01-25T03:18:31.344Z,100.00
2023-01-25T03:21:08.516Z,100.00
2023-01-25T03:23:36.231Z,100.00
2023-01-25T03:26:13.286Z,100.00
2023-01-25T03:28:55.925Z,100.00
2023-01-25T03:31:24.854Z,100.00
2023-01-25T03:33:53.043Z,100.00
2023-01-25T03:36:24.992Z,100.00
2023-01-25T03:38:52.764Z,100.00
2023-01-25T03:41:21.326Z,100.00
2023-01-25T03:43:48.799Z,100.00
2023-01-25T03:46:18.315Z,100.00
2023-01-25T03:48:47.037Z,100.00
2023-01-25T03:51:14.627Z,100.00
2023-01-25T03:53:42.380Z,100.00
2023-01-25T03:56:20.001Z,100.00
2023-01-25T03:59:07.379Z,100.00
2023-01-25T04:01:37.031Z,100.00
2023-01-25T04:04:04.764Z,100.00
2023-01-25T04:06:33.473Z,100.00
2023-01-25T04:09:01.833Z,100.00
2023-01-25T04:11:36.113Z,100.00
2023-01-25T04:14:04.326Z,100.00
2023-01-25T04:16:40.035Z,100.00
2023-01-25T04:19:19.936Z,100.00
2023-01-25T04:21:47.877Z,100.00
2023-01-25T04:24:16.151Z,100.00
2023-01-25T04:26:45.073Z,100.00
2023-01-25T04:29:13.138Z,100.00
2023-01-25T04:31:41.009Z,100.00
2023-01-25T04:34:08.719Z,100.00
2023-01-25T04:36:36.729Z,100.00
2023-01-25T04:39:04.348Z,100.00
2023-01-25T04:41:31.991Z,100.00
2023-01-25T04:44:00.204Z,100.00
2023-01-25T04:46:28.031Z,100.00
2023-01-25T04:48:55.985Z,100.00
2023-01-25T04:51:24.135Z,100.00
2023-01-25T04:53:51.911Z,100.00
2023-01-25T04:56:19.741Z,100.00
2023-01-25T04:58:53.360Z,100.00
2023-01-25T05:01:20.963Z,100.00
2023-01-25T05:03:50.161Z,100.00
2023-01-25T05:06:40.956Z,100.00
2023-01-25T05:09:10.285Z,100.00
2023-01-25T05:11:38.124Z,100.00
2023-01-25T05:14:12.449Z,100.00
2023-01-25T05:16:39.954Z,100.00
2023-01-25T05:19:10.147Z,100.00
2023-01-25T05:21:59.377Z,100.00
2023-01-25T05:24:35.499Z,100.00
2023-01-25T05:27:07.961Z,100.00
2023-01-25T05:30:08.736Z,100.00
2023-01-25T05:32:41.606Z,100.00
2023-01-25T05:35:09.956Z,100.00
2023-01-25T05:37:39.468Z,100.00
2023-01-25T05:40:11.644Z,100.00
2023-01-25T05:42:40.633Z,100.00
2023-01-25T05:45:15.751Z,100.00
2023-01-25T05:47:46.308Z,100.00
2023-01-25T05:50:14.683Z,100.00
2023-01-25T05:52:51.907Z,100.00
2023-01-25T05:55:19.491Z,100.00
2023-01-25T05:57:47.860Z,100.00
2023-01-25T06:00:16.415Z,100.00
2023-01-25T06:02:44.494Z,100.00
2023-01-25T06:05:17.201Z,100.00
2023-01-25T06:07:44.796Z,100.00
2023-01-25T06:10:13.047Z,100.00
2023-01-25T06:12:40.794Z,100.00
2023-01-25T06:15:09.755Z,100.00
2023-01-25T06:17:38.019Z,100.00
2023-01-25T06:20:38.226Z,100.00
2023-01-25T06:23:06.233Z,100.00
2023-01-25T06:25:34.225Z,100.00
2023-01-25T06:28:01.828Z,100.00
2023-01-25T06:30:29.300Z,100.00
2023-01-25T06:32:59.821Z,100.00
2023-01-25T06:35:27.763Z,100.00
2023-01-25T06:37:56.664Z,100.00
2023-01-25T06:40:24.622Z,100.00
2023-01-25T06:42:52.298Z,100.00
2023-01-25T06:45:20.237Z,100.00
2023-01-25T06:47:49.969Z,100.00
2023-01-25T06:50:17.714Z,100.00
2023-01-25T06:52:52.316Z,100.00
2023-01-25T06:55:21.126Z,100.00
2023-01-25T06:57:49.329Z,100.00
2023-01-25T07:00:17.609Z,100.00
2023-01-25T07:02:45.813Z,100.00
2023-01-25T07:05:13.893Z,100.00
2023-01-25T07:07:45.510Z,100.00
2023-01-25T07:10:13.442Z,100.00
2023-01-25T07:12:41.437Z,100.00
2023-01-25T07:15:10.467Z,100.00
2023-01-25T07:17:38.209Z,100.00
2023-01-25T07:20:06.386Z,100.00
2023-01-25T07:22:34.809Z,100.00
2023-01-25T07:25:02.787Z,100.00
2023-01-25T07:27:33.838Z,100.00
2023-01-25T07:30:01.596Z,100.00
2023-01-25T07:32:29.184Z,100.00
2023-01-25T07:34:56.735Z,100.00
2023-01-25T07:37:25.306Z,100.00
2023-01-25T07:39:52.912Z,100.00
2023-01-25T07:42:20.504Z,100.00
2023-01-25T07:44:53.912Z,100.00
2023-01-25T07:47:21.635Z,100.00
2023-01-25T07:49:49.232Z,100.00
2023-01-25T07:52:17.077Z,100.00
2023-01-25T07:54:48.343Z,100.00
2023-01-25T07:57:17.279Z,100.00
2023-01-25T07:59:44.903Z,100.00
2023-01-25T08:02:12.641Z,100.00
2023-01-25T08:04:42.581Z,100.00
2023-01-25T08:07:10.539Z,100.00
2023-01-25T08:09:38.289Z,100.00
2023-01-25T08:12:08.659Z,100.00
2023-01-25T08:14:38.475Z,100.00
2023-01-25T08:17:06.024Z,100.00
2023-01-25T08:19:33.521Z,99.19
2023-01-25T08:22:01.090Z,99.51
2023-01-25T08:24:29.249Z,97.44
2023-01-25T08:26:57.257Z,97.61
2023-01-25T08:29:24.897Z,97.77
2023-01-25T08:31:52.611Z,96.27
2023-01-25T08:34:20.667Z,95.40
2023-01-25T08:36:48.291Z,95.79
2023-01-25T08:39:18.257Z,97.20
2023-01-25T08:41:45.912Z,96.54
2023-01-25T08:44:13.928Z,93.00
2023-01-25T08:46:41.943Z,93.42
2023-01-25T08:49:10.828Z,93.23
2023-01-25T08:51:38.722Z,93.45
2023-01-25T08:54:07.899Z,91.94
2023-01-25T08:56:38.367Z,91.58
2023-01-25T08:59:06.285Z,95.90
2023-01-25T09:01:34.897Z,95.86
2023-01-25T09:04:03.485Z,97.05
2023-01-25T09:06:32.636Z,100.00
2023-01-25T09:09:00.550Z,100.00
2023-01-25T09:11:28.459Z,100.00
2023-01-25T09:13:56.442Z,100.00
2023-01-25T09:16:29.513Z,100.00
2023-01-25T09:19:00.009Z,100.00
2023-01-25T09:21:28.668Z,100.00
2023-01-25T09:24:05.952Z,100.00
2023-01-25T09:26:37.615Z,100.00
2023-01-25T09:29:07.927Z,100.00
2023-01-25T09:31:40.690Z,100.00
2023-01-25T09:34:30.393Z,100.00
2023-01-25T09:36:57.997Z,100.00
2023-01-25T09:39:25.723Z,100.00
2023-01-25T09:42:15.105Z,100.00
2023-01-25T09:45:06.603Z,100.00
2023-01-25T09:47:34.111Z,100.00
2023-01-25T09:50:04.486Z,100.00
2023-01-25T09:52:41.350Z,100.00
2023-01-25T09:55:14.685Z,100.00
2023-01-25T09:57:45.473Z,100.00
2023-01-25T10:00:19.355Z,100.00
2023-01-25T10:03:11.478Z,100.00
2023-01-25T10:05:49.171Z,95.20
2023-01-25T10:08:43.475Z,88.97
2023-01-25T10:11:17.040Z,79.80
2023-01-25T10:13:44.556Z,75.31
2023-01-25T10:16:36.085Z,73.44
2023-01-25T10:19:38.829Z,73.42
2023-01-25T10:22:24.219Z,74.37
2023-01-25T10:25:01.642Z,72.97
2023-01-25T10:27:44.128Z,71.10
2023-01-25T10:30:49.586Z,71.94
2023-01-25T10:33:19.999Z,78.23
2023-01-25T10:35:50.323Z,78.82
2023-01-25T10:39:01.151Z,70.32
2023-01-25T10:41:40.919Z,64.52
2023-01-25T10:44:21.843Z,58.38
2023-01-25T10:46:56.099Z,59.88
2023-01-25T10:49:32.356Z,64.41
2023-01-25T10:52:17.944Z,61.86
2023-01-25T10:54:51.642Z,67.98
2023-01-25T10:57:20.348Z,67.46
2023-01-25T10:59:51.625Z,71.07
2023-01-25T11:02:47.926Z,67.57
2023-01-25T11:05:18.781Z,65.66
2023-01-25T11:07:47.353Z,67.58
2023-01-25T11:10:38.178Z,64.24
2023-01-25T11:13:29.686Z,63.51
2023-01-25T11:16:01.726Z,65.32
2023-01-25T11:18:34.932Z,64.57
2023-01-25T11:21:18.787Z,61.80
2023-01-25T11:24:04.868Z,62.63
2023-01-25T11:26:36.772Z,60.04
2023-01-25T11:29:16.307Z,58.02
2023-01-25T11:31:47.975Z,58.59
2023-01-25T11:34:18.301Z,59.75
2023-01-25T11:37:29.051Z,57.41
2023-01-25T11:40:02.484Z,59.91
2023-01-25T11:43:13.151Z,59.92
2023-01-25T11:46:02.845Z,53.36
2023-01-25T11:48:46.349Z,48.39
2023-01-25T11:51:29.269Z,48.58
2023-01-25T11:54:13.016Z,48.28
2023-01-25T11:57:25.558Z,46.51
2023-01-25T12:00:30.635Z,49.04
2023-01-25T12:03:34.540Z,48.94
2023-01-25T12:06:30.721Z,46.62
2023-01-25T12:09:46.329Z,44.99
2023-01-25T12:12:44.818Z,44.21
2023-01-25T12:15:24.537Z,43.03
2023-01-25T12:18:22.781Z,43.07
2023-01-25T12:21:34.558Z,44.15
2023-01-25T12:24:33.423Z,42.91
2023-01-25T12:27:07.935Z,43.25
2023-01-25T12:29:43.944Z,42.84
2023-01-25T12:32:19.812Z,41.82
2023-01-25T12:34:53.061Z,43.81
2023-01-25T12:37:28.215Z,44.56
2023-01-25T12:40:09.973Z,42.25
2023-01-25T12:42:47.703Z,42.91
2023-01-25T12:45:25.244Z,43.40
2023-01-25T12:48:05.883Z,41.52
2023-01-25T12:50:40.495Z,40.89
2023-01-25T12:53:42.365Z,40.13
2023-01-25T12:56:27.181Z,38.68
2023-01-25T12:59:09.324Z,40.21
2023-01-25T13:01:49.351Z,38.81
2023-01-25T13:04:26.300Z,38.04
2023-01-25T13:07:00.565Z,38.13
2023-01-25T13:09:52.052Z,37.14
2023-01-25T13:12:19.739Z,36.79
2023-01-25T13:14:47.727Z,38.16
2023-01-25T13:17:27.268Z,35.07
2023-01-25T13:19:55.298Z,33.88
2023-01-25T13:22:44.311Z,36.13
2023-01-25T13:25:18.355Z,36.97
2023-01-25T13:27:47.399Z,36.59
2023-01-25T13:30:34.270Z,37.75
2023-01-25T13:33:06.443Z,38.76
2023-01-25T13:35:36.641Z,38.07
2023-01-25T13:38:35.668Z,37.85
2023-01-25T13:41:17.198Z,38.32
2023-01-25T13:43:48.085Z,38.20
2023-01-25T13:46:19.037Z,36.32
2023-01-25T13:48:54.077Z,34.52
2023-01-25T13:51:23.447Z,33.46
2023-01-25T13:54:00.033Z,33.77
2023-01-25T13:56:35.278Z,34.25
2023-01-25T13:59:04.165Z,35.76
2023-01-25T14:01:36.148Z,35.79
2023-01-25T14:04:05.875Z,33.66
2023-01-25T14:06:38.899Z,34.91
2023-01-25T14:09:16.690Z,33.08
2023-01-25T14:11:56.619Z,33.17
2023-01-25T14:14:27.017Z,32.58
2023-01-25T14:17:16.710Z,30.36
2023-01-25T14:19:49.742Z,33.12
2023-01-25T14:22:28.779Z,31.37
2023-01-25T14:25:19.320Z,32.18
2023-01-25T14:27:51.312Z,31.74
2023-01-25T14:30:30.857Z,29.65
2023-01-25T14:33:01.466Z,28.48
2023-01-25T14:35:43.003Z,30.94
2023-01-25T14:38:24.827Z,28.03
2023-01-25T14:40:57.389Z,27.63
2023-01-25T14:43:26.285Z,30.54
2023-01-25T14:45:53.940Z,35.26
2023-01-25T14:48:45.167Z,34.87
2023-01-25T14:51:12.627Z,33.55
2023-01-25T14:53:43.477Z,36.52
2023-01-25T14:56:36.918Z,38.99
2023-01-25T14:59:06.405Z,36.27
2023-01-25T15:01:40.310Z,35.93
2023-01-25T15:04:13.110Z,34.80
2023-01-25T15:06:50.871Z,35.94
2023-01-25T15:09:38.748Z,38.06
2023-01-25T15:12:23.099Z,41.52
2023-01-25T15:14:53.520Z,44.87
2023-01-25T15:17:44.079Z,45.96
2023-01-25T15:20:34.834Z,47.10
2023-01-25T15:23:21.279Z,48.00
2023-01-25T15:25:54.411Z,48.36
2023-01-25T15:28:24.166Z,48.67
2023-01-25T15:30:52.685Z,49.61
2023-01-25T15:33:25.915Z,50.58
2023-01-25T15:35:55.298Z,51.15
2023-01-25T15:38:23.036Z,51.88
2023-01-25T15:40:51.622Z,52.80
2023-01-25T15:43:20.298Z,53.62
2023-01-25T15:45:50.672Z,55.05
2023-01-25T15:48:23.534Z,56.19
2023-01-25T15:50:54.290Z,57.10
2023-01-25T15:53:22.225Z,55.73
2023-01-25T15:55:57.612Z,57.38
2023-01-25T15:58:34.611Z,58.13
2023-01-25T16:01:02.734Z,58.42
2023-01-25T16:03:32.543Z,60.58
2023-01-25T16:06:04.271Z,60.03
2023-01-25T16:08:32.306Z,61.92
2023-01-25T16:10:59.873Z,63.71
2023-01-25T16:13:27.872Z,63.91
2023-01-25T16:15:57.356Z,63.75
2023-01-25T16:18:24.995Z,62.94
2023-01-25T16:20:52.538Z,62.86
2023-01-25T16:23:20.071Z,63.08
2023-01-25T16:25:48.867Z,62.62
2023-01-25T16:28:17.852Z,66.22
2023-01-25T16:30:45.978Z,66.04
2023-01-25T16:33:13.568Z,64.67
2023-01-25T16:35:41.571Z,65.42
2023-01-25T16:38:11.468Z,70.22
2023-01-25T16:40:39.888Z,68.31
2023-01-25T16:43:07.535Z,69.61
2023-01-25T16:45:35.112Z,73.44
2023-01-25T16:48:03.100Z,67.17
2023-01-25T16:50:31.411Z,67.21
2023-01-25T16:53:00.102Z,67.52
2023-01-25T16:55:27.645Z,66.49
2023-01-25T16:57:55.264Z,68.50
2023-01-25T17:00:22.915Z,69.35
2023-01-25T17:02:59.246Z,69.17
2023-01-25T17:05:34.017Z,70.44
2023-01-25T17:08:01.673Z,68.67
2023-01-25T17:10:29.866Z,68.99
2023-01-25T17:12:57.545Z,68.10
2023-01-25T17:15:25.054Z,69.67
2023-01-25T17:17:52.700Z,68.63
2023-01-25T17:20:20.761Z,68.96
2023-01-25T17:22:51.275Z,68.47
2023-01-25T17:25:19.024Z,69.20
2023-01-25T17:27:47.214Z,70.36
2023-01-25T17:30:14.859Z,70.25
2023-01-25T17:32:42.463Z,70.68
2023-01-25T17:35:10.400Z,70.01
2023-01-25T17:37:41.121Z,73.38
2023-01-25T17:40:10.610Z,74.14
2023-01-25T17:42:38.651Z,71.97
2023-01-25T17:45:06.935Z,73.39
2023-01-25T17:47:35.626Z,77.59
2023-01-25T17:50:04.061Z,73.23
2023-01-25T17:52:32.092Z,74.07
2023-01-25T17:55:00.508Z,74.55
2023-01-25T17:57:31.609Z,75.48
2023-01-25T17:59:59.176Z,80.34
2023-01-25T18:02:27.202Z,76.54
2023-01-25T18:04:57.850Z,76.63
2023-01-25T18:07:25.687Z,78.45
2023-01-25T18:09:53.307Z,78.35
2023-01-25T18:12:21.372Z,79.77
2023-01-25T18:14:49.461Z,77.23
2023-01-25T18:17:17.278Z,77.16
2023-01-25T18:19:45.984Z,79.38
2023-01-25T18:22:14.017Z,82.88
2023-01-25T18:24:43.998Z,84.56
2023-01-25T18:27:21.785Z,82.26
2023-01-25T18:29:55.469Z,86.88
2023-01-25T18:32:23.073Z,87.16
2023-01-25T18:34:50.759Z,87.38
2023-01-25T18:37:18.693Z,86.89
2023-01-25T18:39:48.899Z,87.39
2023-01-25T18:42:16.531Z,86.99
2023-01-25T18:44:48.245Z,86.39
2023-01-25T18:47:20.676Z,87.19
2023-01-25T18:49:49.731Z,87.42
2023-01-25T18:52:19.521Z,89.40
2023-01-25T18:54:47.201Z,91.00
2023-01-25T18:57:15.760Z,91.33
2023-01-25T18:59:44.307Z,90.99
2023-01-25T19:02:13.587Z,90.69
2023-01-25T19:04:41.987Z,89.62
2023-01-25T19:07:10.497Z,90.04
2023-01-25T19:09:38.601Z,89.00
2023-01-25T19:12:06.372Z,92.46
2023-01-25T19:14:33.973Z,91.73
2023-01-25T19:17:01.420Z,89.49
2023-01-25T19:19:32.232Z,91.25
2023-01-25T19:22:01.014Z,91.82
2023-01-25T19:24:28.614Z,94.03
2023-01-25T19:26:56.310Z,93.07
2023-01-25T19:29:24.361Z,92.67
2023-01-25T19:31:52.826Z,90.33
2023-01-25T19:34:21.082Z,88.36
2023-01-25T19:36:53.721Z,88.96
2023-01-25T19:39:21.449Z,87.59
2023-01-25T19:41:53.209Z,86.48
2023-01-25T19:44:21.276Z,88.21
2023-01-25T19:46:49.360Z,89.49
2023-01-25T19:49:17.192Z,90.06
2023-01-25T19:51:46.331Z,88.98
2023-01-25T19:54:17.137Z,90.34
2023-01-25T19:56:48.124Z,92.84
2023-01-25T19:59:18.815Z,92.10
2023-01-25T20:01:47.148Z,92.52
2023-01-25T20:04:19.588Z,89.68
2023-01-25T20:06:47.989Z,88.54
2023-01-25T20:09:17.479Z,88.97
2023-01-25T20:11:47.239Z,88.96
2023-01-25T20:14:16.015Z,87.34
2023-01-25T20:16:43.720Z,82.01
2023-01-25T20:19:12.863Z,83.64
2023-01-25T20:21:40.805Z,84.39
2023-01-25T20:24:10.446Z,83.95
2023-01-25T20:26:42.894Z,81.98
2023-01-25T20:29:12.140Z,79.83
2023-01-25T20:31:43.733Z,80.59
2023-01-25T20:34:17.332Z,80.46
2023-01-25T20:36:45.566Z,79.76
2023-01-25T20:39:15.145Z,79.24
2023-01-25T20:41:42.953Z,78.35
2023-01-25T20:44:13.229Z,77.26
2023-01-25T20:46:42.605Z,75.10
2023-01-25T20:49:15.778Z,74.28
2023-01-25T20:51:44.221Z,73.34
2023-01-25T20:54:12.206Z,75.20
2023-01-25T20:56:40.299Z,73.75
2023-01-25T20:59:08.044Z,74.19
2023-01-25T21:01:39.029Z,74.66
2023-01-25T21:04:09.701Z,73.53
2023-01-25T21:06:38.747Z,72.48
2023-01-25T21:09:06.932Z,71.39
2023-01-25T21:11:34.853Z,70.94
2023-01-25T21:14:02.929Z,72.31
2023-01-25T21:16:30.658Z,74.41
2023-01-25T21:19:04.612Z,73.65
2023-01-25T21:21:34.637Z,76.64
2023-01-25T21:24:05.476Z,75.17
2023-01-25T21:26:35.787Z,78.55
2023-01-25T21:29:05.815Z,77.43
2023-01-25T21:31:36.541Z,77.52
2023-01-25T21:34:06.622Z,80.46
2023-01-25T21:36:34.648Z,79.82
2023-01-25T21:39:02.890Z,80.02
2023-01-25T21:41:33.800Z,81.95
2023-01-25T21:44:21.060Z,80.95
2023-01-25T21:47:16.474Z,81.79
2023-01-25T21:49:55.763Z,83.49
2023-01-25T21:52:23.333Z,84.79
2023-01-25T21:54:51.254Z,86.18
2023-01-25T21:57:19.215Z,84.43
2023-01-25T21:59:48.072Z,84.07
2023-01-25T22:02:15.842Z,79.26
2023-01-25T22:04:43.556Z,80.18
2023-01-25T22:07:12.224Z,79.04
2023-01-25T22:09:39.822Z,78.14
2023-01-25T22:12:07.679Z,77.83
2023-01-25T22:14:35.332Z,75.08
2023-01-25T22:17:03.284Z,77.66
2023-01-25T22:19:31.365Z,76.30
2023-01-25T22:21:59.229Z,77.84
2023-01-25T22:24:26.912Z,78.48
2023-01-25T22:27:10.099Z,78.41
2023-01-25T22:29:38.235Z,78.15
2023-01-25T22:32:06.039Z,75.81
2023-01-25T22:34:33.913Z,76.64
2023-01-25T22:37:02.033Z,74.36
2023-01-25T22:39:29.685Z,73.47
2023-01-25T22:41:57.468Z,72.31
2023-01-25T22:44:25.078Z,73.75
2023-01-25T22:46:53.870Z,71.75
2023-01-25T22:49:21.442Z,72.37
2023-01-25T22:51:48.957Z,73.41
2023-01-25T22:54:17.095Z,73.74
2023-01-25T22:56:45.063Z,72.36
2023-01-25T22:59:18.653Z,72.79
2023-01-25T23:01:46.780Z,73.19
2023-01-25T23:04:14.236Z,73.18
2023-01-25T23:06:42.769Z,70.88
2023-01-25T23:09:10.393Z,72.82
2023-01-25T23:11:39.300Z,71.56
2023-01-25T23:14:38.336Z,72.20
2023-01-25T23:17:24.512Z,73.55
2023-01-25T23:19:52.236Z,73.75
2023-01-25T23:22:20.267Z,74.56
2023-01-25T23:24:47.713Z,72.89
2023-01-25T23:27:15.345Z,72.91
2023-01-25T23:29:46.109Z,72.47
2023-01-25T23:32:13.745Z,72.84
2023-01-25T23:34:42.041Z,71.73
2023-01-25T23:37:10.112Z,71.53
2023-01-25T23:39:38.088Z,73.66
2023-01-25T23:42:06.190Z,73.75
2023-01-25T23:44:33.892Z,76.22
2023-01-25T23:47:01.743Z,74.21
2023-01-25T23:49:29.324Z,74.47
2023-01-25T23:51:56.973Z,74.89
2023-01-25T23:54:27.146Z,75.30
2023-01-25T23:56:54.733Z,76.89
2023-01-25T23:59:22.720Z,76.25
